createdAt,value
2018-01-03T00:00:36.818Z,4.20
2018-01-03T00:03:04.949Z,4.20
2018-01-03T00:05:33.120Z,4.20
2018-01-03T00:08:01.304Z,4.20
2018-01-03T00:10:29.456Z,4.20
2018-01-03T00:12:57.577Z,4.10
2018-01-03T00:15:26.496Z,4.10
2018-01-03T00:17:54.633Z,4.10
2018-01-03T00:20:22.797Z,4.00
2018-01-03T00:22:50.930Z,4.00
2018-01-03T00:25:19.088Z,4.00
2018-01-03T00:27:47.216Z,4.00
2018-01-03T00:30:15.389Z,4.00
2018-01-03T00:32:43.521Z,4.00
2018-01-03T00:35:11.673Z,4.00
2018-01-03T00:37:39.805Z,3.90
2018-01-03T00:40:07.969Z,4.00
2018-01-03T00:42:36.101Z,4.00
2018-01-03T00:45:04.272Z,3.90
2018-01-03T00:47:32.417Z,3.90
2018-01-03T00:50:00.580Z,4.00
2018-01-03T00:52:28.712Z,4.00
2018-01-03T00:54:56.860Z,4.00
2018-01-03T00:57:24.985Z,3.90
2018-01-03T00:59:53.132Z,4.00
2018-01-03T01:02:21.256Z,3.90
2018-01-03T01:04:49.409Z,3.90
2018-01-03T01:07:17.538Z,3.90
2018-01-03T01:09:45.687Z,3.90
2018-01-03T01:12:14.573Z,3.90
2018-01-03T01:14:42.724Z,3.80
2018-01-03T01:17:10.841Z,3.90
2018-01-03T01:19:39.001Z,3.90
2018-01-03T01:22:07.129Z,3.90
2018-01-03T01:24:35.276Z,3.90
2018-01-03T01:27:03.405Z,3.90
2018-01-03T01:29:32.324Z,3.90
2018-01-03T01:32:00.459Z,3.90
2018-01-03T01:34:28.624Z,4.00
2018-01-03T01:36:56.745Z,3.90
2018-01-03T01:39:24.925Z,3.90
2018-01-03T01:41:53.058Z,3.90
2018-01-03T01:44:21.215Z,3.90
2018-01-03T01:46:49.336Z,3.90
2018-01-03T01:49:17.494Z,3.90
2018-01-03T01:51:45.617Z,3.90
2018-01-03T01:54:13.773Z,3.90
2018-01-03T01:56:41.905Z,3.90
2018-01-03T01:59:10.055Z,3.90
2018-01-03T02:01:38.177Z,3.90
2018-01-03T02:04:06.336Z,3.90
2018-01-03T02:06:35.227Z,3.80
2018-01-03T02:09:03.376Z,3.80
2018-01-03T02:11:31.527Z,3.90
2018-01-03T02:13:59.660Z,3.80
2018-01-03T02:16:27.813Z,3.80
2018-01-03T02:18:55.936Z,3.80
2018-01-03T02:21:24.086Z,3.80
2018-01-03T02:23:52.208Z,3.80
2018-01-03T02:26:20.368Z,3.80
2018-01-03T02:28:48.496Z,3.80
2018-01-03T02:31:16.652Z,3.80
2018-01-03T02:33:45.541Z,3.70
2018-01-03T02:36:13.694Z,3.80
2018-01-03T02:38:41.817Z,3.80
2018-01-03T02:41:09.973Z,3.80
2018-01-03T02:43:38.102Z,3.80
2018-01-03T02:46:06.249Z,3.80
2018-01-03T02:48:34.378Z,3.80
2018-01-03T02:51:03.306Z,3.80
2018-01-03T02:53:31.434Z,3.80
2018-01-03T02:55:59.592Z,3.80
2018-01-03T02:58:27.725Z,3.80
2018-01-03T03:00:55.881Z,3.80
2018-01-03T03:03:24.006Z,3.80
2018-01-03T03:05:52.153Z,3.80
2018-01-03T03:08:20.268Z,3.80
2018-01-03T03:10:48.421Z,3.80
2018-01-03T03:13:16.546Z,3.80
2018-01-03T03:15:44.699Z,3.80
2018-01-03T03:18:12.817Z,3.80
2018-01-03T03:20:40.969Z,3.80
2018-01-03T03:23:09.092Z,3.80
2018-01-03T03:25:37.250Z,3.80
2018-01-03T03:28:05.379Z,3.80
2018-01-03T03:30:34.294Z,3.80
2018-01-03T03:33:02.423Z,3.80
2018-01-03T03:35:30.569Z,3.80
2018-01-03T03:37:58.698Z,3.80
2018-01-03T03:40:26.848Z,3.80
2018-01-03T03:42:54.968Z,3.80
2018-01-03T03:45:23.109Z,3.80
2018-01-03T03:47:52.012Z,3.80
2018-01-03T03:50:20.161Z,3.80
2018-01-03T03:52:49.059Z,3.90
2018-01-03T03:55:17.233Z,3.90
2018-01-03T03:57:46.125Z,3.90
2018-01-03T04:00:14.269Z,3.90
2018-01-03T04:02:42.390Z,3.90
2018-01-03T04:05:10.549Z,3.90
2018-01-03T04:07:38.676Z,3.90
2018-01-03T04:10:06.822Z,3.90
2018-01-03T04:12:34.945Z,3.90
2018-01-03T04:15:03.090Z,3.80
2018-01-03T04:17:31.210Z,3.80
2018-01-03T04:19:59.369Z,3.80
2018-01-03T04:22:27.493Z,3.80
2018-01-03T04:24:55.612Z,3.80
2018-01-03T04:27:23.756Z,3.80
2018-01-03T04:29:51.880Z,3.80
2018-01-03T04:32:20.033Z,3.80
2018-01-03T04:34:48.160Z,3.80
2018-01-03T04:37:16.300Z,3.80
2018-01-03T04:39:45.188Z,3.80
2018-01-03T04:42:13.333Z,4.00
2018-01-03T04:44:41.468Z,3.90
2018-01-03T04:47:09.613Z,3.90
2018-01-03T04:49:37.763Z,3.90
2018-01-03T04:52:05.913Z,3.90
2018-01-03T04:54:34.049Z,3.90
2018-01-03T04:57:02.199Z,3.90
2018-01-03T04:59:30.322Z,3.90
2018-01-03T05:01:58.480Z,4.00
2018-01-03T05:04:26.604Z,4.00
2018-01-03T05:06:54.753Z,3.90
2018-01-03T05:09:22.872Z,4.00
2018-01-03T05:11:51.029Z,4.00
2018-01-03T05:14:19.158Z,4.00
2018-01-03T05:16:47.302Z,4.00
2018-01-03T05:19:15.452Z,4.00
2018-01-03T05:21:43.597Z,4.00
2018-01-03T05:24:11.728Z,4.00
2018-01-03T05:26:39.882Z,4.00
2018-01-03T05:29:08.770Z,4.10
2018-01-03T05:31:36.917Z,4.10
2018-01-03T05:34:05.047Z,4.10
2018-01-03T05:36:33.197Z,4.10
2018-01-03T05:39:01.320Z,4.10
2018-01-03T05:41:29.477Z,4.10
2018-01-03T05:43:57.600Z,4.10
2018-01-03T05:46:26.544Z,4.10
2018-01-03T05:48:54.996Z,4.10
2018-01-03T05:51:23.151Z,4.10
2018-01-03T05:53:51.270Z,4.10
2018-01-03T05:56:19.417Z,4.10
2018-01-03T05:58:47.549Z,4.20
2018-01-03T06:01:15.706Z,4.10
2018-01-03T06:03:43.825Z,4.10
2018-01-03T06:06:11.977Z,4.20
2018-01-03T06:08:40.114Z,4.10
2018-01-03T06:11:08.259Z,4.20
2018-01-03T06:13:36.381Z,4.20
2018-01-03T06:16:04.535Z,4.20
2018-01-03T06:18:32.687Z,4.20
2018-01-03T06:21:00.855Z,4.20
2018-01-03T06:23:28.976Z,4.20
2018-01-03T06:25:57.204Z,4.20
2018-01-03T06:28:25.329Z,4.20
2018-01-03T06:30:53.482Z,4.20
2018-01-03T06:33:21.632Z,4.30
2018-01-03T06:35:49.757Z,4.30
2018-01-03T06:38:17.914Z,4.30
2018-01-03T06:40:46.037Z,4.30
2018-01-03T06:43:14.197Z,4.30
2018-01-03T06:45:42.316Z,4.30
2018-01-03T06:48:10.471Z,4.30
2018-01-03T06:50:38.597Z,4.30
2018-01-03T06:53:06.745Z,4.30
2018-01-03T06:55:34.874Z,4.40
2018-01-03T06:58:03.028Z,4.30
2018-01-03T07:00:31.149Z,4.20
2018-01-03T07:02:59.311Z,4.20
2018-01-03T07:05:27.437Z,4.10
2018-01-03T07:07:55.593Z,4.10
2018-01-03T07:10:23.713Z,4.00
2018-01-03T07:12:51.867Z,4.00
2018-01-03T07:15:20.758Z,4.00
2018-01-03T07:17:48.916Z,3.90
2018-01-03T07:20:17.037Z,4.00
2018-01-03T07:22:45.187Z,3.90
2018-01-03T07:25:13.321Z,3.90
2018-01-03T07:27:41.472Z,3.90
2018-01-03T07:30:09.607Z,3.90
2018-01-03T07:32:37.777Z,3.90
2018-01-03T07:35:05.923Z,4.00
2018-01-03T07:37:34.072Z,3.90
2018-01-03T07:40:02.204Z,4.00
2018-01-03T07:42:30.369Z,4.00
2018-01-03T07:44:58.508Z,4.00
2018-01-03T07:47:26.661Z,4.00
2018-01-03T07:49:54.790Z,4.10
2018-01-03T07:52:23.702Z,4.20
2018-01-03T07:54:51.830Z,4.20
2018-01-03T07:57:19.977Z,4.20
2018-01-03T07:59:48.100Z,4.30
2018-01-03T08:02:16.254Z,4.30
2018-01-03T08:04:44.373Z,4.30
2018-01-03T08:07:12.522Z,4.40
2018-01-03T08:09:41.416Z,4.50
2018-01-03T08:12:09.571Z,4.50
2018-01-03T08:14:38.456Z,4.70
2018-01-03T08:17:06.605Z,4.60
2018-01-03T08:19:34.811Z,4.70
2018-01-03T08:22:02.980Z,4.70
2018-01-03T08:24:31.191Z,4.80
2018-01-03T08:26:59.322Z,4.80
2018-01-03T08:29:27.482Z,4.80
2018-01-03T08:31:55.596Z,4.80
2018-01-03T08:34:23.745Z,4.80
2018-01-03T08:36:51.869Z,4.80
2018-01-03T08:39:20.026Z,4.90
2018-01-03T08:41:48.151Z,4.90
2018-01-03T08:44:16.299Z,5.00
2018-01-03T08:46:44.416Z,5.00
2018-01-03T08:49:13.337Z,5.10
2018-01-03T08:51:41.474Z,5.10
2018-01-03T08:54:09.634Z,5.10
2018-01-03T08:56:37.826Z,5.20
2018-01-03T08:59:05.981Z,5.20
2018-01-03T09:01:34.104Z,5.30
2018-01-03T09:04:02.265Z,5.30
2018-01-03T09:06:30.405Z,5.30
2018-01-03T09:08:58.552Z,5.30
2018-01-03T09:11:26.681Z,5.30
2018-01-03T09:13:55.603Z,5.30
2018-01-03T09:16:23.729Z,5.30
2018-01-03T09:18:51.882Z,5.30
2018-01-03T09:21:20.034Z,5.40
2018-01-03T09:23:48.181Z,5.40
2018-01-03T09:26:16.305Z,5.50
2018-01-03T09:28:44.461Z,5.50
2018-01-03T09:31:12.773Z,5.50
2018-01-03T09:33:40.950Z,5.60
2018-01-03T09:36:09.073Z,5.60
2018-01-03T09:38:37.228Z,5.60
2018-01-03T09:41:05.356Z,5.70
2018-01-03T09:43:33.518Z,5.70
2018-01-03T09:46:01.670Z,5.70
2018-01-03T09:48:29.825Z,5.70
2018-01-03T09:50:57.964Z,5.70
2018-01-03T09:53:26.928Z,5.80
2018-01-03T09:55:55.062Z,5.80
2018-01-03T09:58:23.250Z,5.80
2018-01-03T10:00:51.373Z,5.90
2018-01-03T10:03:20.299Z,6.00
2018-01-03T10:05:48.424Z,6.00
2018-01-03T10:08:16.606Z,6.10
2018-01-03T10:10:44.749Z,6.20
2018-01-03T10:13:12.922Z,6.30
2018-01-03T10:15:41.059Z,6.50
2018-01-03T10:18:09.215Z,6.60
2018-01-03T10:20:38.114Z,7.00
2018-01-03T10:23:06.265Z,6.90
2018-01-03T10:25:34.402Z,7.10
2018-01-03T10:28:02.552Z,7.20
2018-01-03T10:30:30.676Z,7.30
2018-01-03T10:32:58.829Z,7.40
2018-01-03T10:35:26.956Z,7.50
2018-01-03T10:37:55.127Z,7.50
2018-01-03T10:40:23.258Z,7.50
2018-01-03T10:42:51.382Z,7.50
2018-01-03T10:45:19.539Z,7.40
2018-01-03T10:47:48.430Z,7.40
2018-01-03T10:50:16.591Z,7.40
2018-01-03T10:52:44.717Z,7.30
2018-01-03T10:55:12.862Z,7.30
2018-01-03T10:57:40.984Z,7.30
2018-01-03T11:00:09.143Z,7.30
2018-01-03T11:02:37.284Z,7.20
2018-01-03T11:05:05.441Z,7.20
2018-01-03T11:07:33.578Z,7.10
2018-01-03T11:10:01.738Z,7.10
2018-01-03T11:12:29.875Z,7.10
2018-01-03T11:14:58.045Z,7.20
2018-01-03T11:17:26.181Z,7.20
2018-01-03T11:19:54.334Z,7.20
2018-01-03T11:22:22.455Z,7.20
2018-01-03T11:24:51.381Z,7.20
2018-01-03T11:27:19.593Z,7.20
2018-01-03T11:29:47.753Z,7.20
2018-01-03T11:32:15.905Z,7.30
2018-01-03T11:34:44.060Z,7.30
2018-01-03T11:37:12.191Z,7.30
2018-01-03T11:39:40.366Z,7.30
2018-01-03T11:42:11.438Z,7.30
2018-01-03T11:44:40.364Z,7.30
2018-01-03T11:47:08.489Z,7.30
2018-01-03T11:49:36.677Z,7.40
2018-01-03T11:52:05.564Z,7.80
2018-01-03T11:54:33.737Z,7.70
2018-01-03T11:57:01.864Z,7.90
2018-01-03T11:59:30.016Z,8.10
2018-01-03T12:01:58.132Z,8.20
2018-01-03T12:04:26.293Z,8.30
2018-01-03T12:06:54.413Z,8.30
2018-01-03T12:09:22.561Z,8.30
2018-01-03T12:11:51.537Z,8.30
2018-01-03T12:14:19.733Z,8.20
2018-01-03T12:16:47.845Z,8.10
2018-01-03T12:19:16.007Z,8.00
2018-01-03T12:21:44.137Z,7.90
2018-01-03T12:24:12.306Z,7.80
2018-01-03T12:26:40.438Z,7.70
2018-01-03T12:29:08.597Z,7.60
2018-01-03T12:31:36.758Z,7.50
2018-01-03T12:34:04.926Z,7.40
2018-01-03T12:36:33.049Z,7.30
2018-01-03T12:39:01.229Z,7.20
2018-01-03T12:41:29.366Z,7.20
2018-01-03T12:43:57.575Z,7.10
2018-01-03T12:46:25.705Z,7.00
2018-01-03T12:48:53.866Z,6.90
2018-01-03T12:51:23.025Z,6.60
2018-01-03T12:53:51.208Z,6.60
2018-01-03T12:56:19.354Z,6.50
2018-01-03T12:58:47.504Z,6.40
2018-01-03T13:01:15.641Z,6.30
2018-01-03T13:03:43.793Z,6.30
2018-01-03T13:06:11.946Z,6.30
2018-01-03T13:08:40.068Z,6.20
2018-01-03T13:11:09.015Z,6.20
2018-01-03T13:13:37.174Z,6.20
2018-01-03T13:16:05.332Z,6.20
2018-01-03T13:18:33.456Z,6.20
2018-01-03T13:21:01.602Z,6.20
2018-01-03T13:23:29.750Z,6.20
2018-01-03T13:25:57.904Z,6.10
2018-01-03T13:28:26.033Z,6.10
2018-01-03T13:30:54.199Z,6.10
2018-01-03T13:33:22.330Z,6.10
2018-01-03T13:35:50.509Z,6.00
2018-01-03T13:38:18.629Z,6.00
2018-01-03T13:40:46.788Z,6.00
2018-01-03T13:43:14.909Z,6.00
2018-01-03T13:45:43.076Z,5.90
2018-01-03T13:48:11.205Z,6.00
2018-01-03T13:50:39.355Z,5.90
2018-01-03T13:53:08.238Z,5.90
2018-01-03T13:55:36.380Z,5.90
2018-01-03T13:58:04.508Z,5.90
2018-01-03T14:00:32.652Z,5.90
2018-01-03T14:03:02.911Z,6.00
2018-01-03T14:05:31.062Z,6.00
2018-01-03T14:07:59.190Z,6.00
2018-01-03T14:10:27.361Z,6.00
2018-01-03T14:12:55.493Z,6.00
2018-01-03T14:15:23.655Z,6.00
2018-01-03T14:17:51.777Z,6.00
2018-01-03T14:20:19.936Z,5.90
2018-01-03T14:22:48.075Z,5.90
2018-01-03T14:25:16.226Z,5.90
2018-01-03T14:27:44.411Z,5.90
2018-01-03T14:30:13.328Z,5.90
2018-01-03T14:32:41.474Z,5.90
2018-01-03T14:35:10.394Z,5.80
2018-01-03T14:37:38.518Z,5.80
2018-01-03T14:40:06.682Z,5.80
2018-01-03T14:42:34.823Z,5.80
2018-01-03T14:45:02.985Z,5.80
2018-01-03T14:47:31.145Z,5.70
2018-01-03T14:50:00.067Z,5.80
2018-01-03T14:52:28.206Z,5.70
2018-01-03T14:54:57.120Z,5.70
2018-01-03T14:57:25.308Z,5.70
2018-01-03T14:59:53.456Z,5.80
2018-01-03T15:02:21.593Z,5.70
2018-01-03T15:04:49.775Z,5.80
2018-01-03T15:07:17.914Z,5.70
2018-01-03T15:09:46.095Z,5.80
2018-01-03T15:12:14.205Z,5.80
2018-01-03T15:14:42.358Z,5.80
2018-01-03T15:17:10.483Z,5.80
2018-01-03T15:19:38.617Z,5.80
2018-01-03T15:22:07.545Z,5.80
2018-01-03T15:24:35.698Z,5.80
2018-01-03T15:27:03.910Z,5.90
2018-01-03T15:29:32.150Z,5.90
2018-01-03T15:32:00.435Z,5.90
2018-01-03T15:34:28.616Z,5.90
2018-01-03T15:36:56.819Z,5.90
2018-01-03T15:39:25.054Z,5.90
2018-01-03T15:41:53.276Z,5.90
2018-01-03T15:44:21.425Z,5.80
2018-01-03T15:46:49.586Z,5.80
2018-01-03T15:49:17.730Z,5.80
2018-01-03T15:51:45.913Z,5.80
2018-01-03T15:54:14.833Z,5.80
2018-01-03T15:56:43.019Z,5.80
2018-01-03T15:59:11.158Z,5.80
2018-01-03T16:01:39.470Z,5.80
2018-01-03T16:04:07.591Z,5.70
2018-01-03T16:06:35.738Z,5.70
2018-01-03T16:09:03.871Z,5.70
2018-01-03T16:11:32.022Z,5.70
2018-01-03T16:14:00.914Z,5.70
2018-01-03T16:16:29.203Z,5.70
2018-01-03T16:18:57.401Z,5.70
2018-01-03T16:21:25.593Z,5.70
2018-01-03T16:23:53.877Z,5.70
2018-01-03T16:26:22.081Z,5.70
2018-01-03T16:28:50.237Z,5.70
2018-01-03T16:31:18.394Z,5.70
2018-01-03T16:33:46.510Z,5.70
2018-01-03T16:36:15.433Z,5.70
2018-01-03T16:38:43.569Z,5.70
2018-01-03T16:41:12.516Z,5.70
2018-01-03T16:43:40.650Z,5.70
2018-01-03T16:46:08.910Z,5.70
2018-01-03T16:48:37.090Z,5.80
2018-01-03T16:51:06.016Z,5.80
2018-01-03T16:53:34.202Z,5.80
2018-01-03T16:56:02.430Z,5.80
2018-01-03T16:58:30.585Z,5.80
2018-01-03T17:00:59.530Z,5.80
2018-01-03T17:03:27.687Z,5.80
2018-01-03T17:05:55.855Z,5.80
2018-01-03T17:08:23.989Z,5.80
2018-01-03T17:10:52.142Z,5.80
2018-01-03T17:13:20.272Z,5.80
2018-01-03T17:15:48.468Z,5.80
2018-01-03T17:18:16.594Z,5.80
2018-01-03T17:20:44.758Z,5.80
2018-01-03T17:23:12.880Z,5.80
2018-01-03T17:25:41.055Z,5.80
2018-01-03T17:28:09.190Z,5.80
2018-01-03T17:30:37.357Z,5.80
2018-01-03T17:33:05.497Z,5.80
2018-01-03T17:35:34.386Z,5.90
2018-01-03T17:38:02.560Z,5.80
2018-01-03T17:40:30.689Z,5.90
2018-01-03T17:42:59.636Z,5.90
2018-01-03T17:45:27.966Z,5.90
2018-01-03T17:47:56.154Z,5.90
2018-01-03T17:50:24.306Z,5.90
2018-01-03T17:52:52.449Z,5.90
2018-01-03T17:55:20.580Z,5.90
2018-01-03T17:57:48.737Z,5.90
2018-01-03T18:00:17.010Z,5.90
2018-01-03T18:02:45.256Z,5.90
2018-01-03T18:05:13.428Z,5.90
2018-01-03T18:07:41.699Z,5.90
2018-01-03T18:10:09.889Z,5.90
2018-01-03T18:12:38.809Z,5.90
2018-01-03T18:15:06.962Z,5.90
2018-01-03T18:17:35.906Z,5.80
2018-01-03T18:20:04.066Z,5.80
2018-01-03T18:22:32.266Z,5.80
2018-01-03T18:25:00.405Z,5.80
2018-01-03T18:27:28.589Z,5.80
2018-01-03T18:29:56.819Z,5.90
2018-01-03T18:32:25.034Z,5.90
2018-01-03T18:34:53.176Z,5.90
2018-01-03T18:37:21.380Z,5.90
2018-01-03T18:39:49.614Z,5.90
2018-01-03T18:42:17.857Z,5.90
2018-01-03T18:44:46.117Z,5.90
2018-01-03T18:47:14.515Z,5.90
2018-01-03T18:49:42.659Z,5.90
2018-01-03T18:52:10.816Z,5.90
2018-01-03T18:54:39.024Z,5.90
2018-01-03T18:57:07.217Z,5.90
2018-01-03T18:59:35.343Z,5.90
2018-01-03T19:02:03.528Z,5.90
2018-01-03T19:04:31.758Z,5.80
2018-01-03T19:06:59.970Z,5.80
2018-01-03T19:09:28.360Z,5.70
2018-01-03T19:11:56.638Z,5.70
2018-01-03T19:14:25.769Z,5.70
2018-01-03T19:16:53.975Z,5.60
2018-01-03T19:19:22.650Z,5.60
2018-01-03T19:21:51.813Z,5.50
2018-01-03T19:24:20.015Z,5.50
2018-01-03T19:26:48.434Z,5.50
2018-01-03T19:29:16.576Z,5.50
2018-01-03T19:31:44.852Z,5.50
2018-01-03T19:34:13.937Z,5.40
2018-01-03T19:36:42.147Z,5.40
2018-01-03T19:39:10.272Z,5.40
2018-01-03T19:41:38.478Z,5.40
2018-01-03T19:44:06.617Z,5.40
2018-01-03T19:46:34.763Z,5.40
2018-01-03T19:49:02.889Z,5.40
2018-01-03T19:51:31.831Z,5.40
2018-01-03T19:54:00.758Z,5.40
2018-01-03T19:56:28.896Z,5.30
2018-01-03T19:58:57.050Z,5.40
2018-01-03T20:01:25.215Z,5.40
2018-01-03T20:03:53.377Z,5.40
2018-01-03T20:06:21.498Z,5.40
2018-01-03T20:08:49.655Z,5.40
2018-01-03T20:11:17.768Z,5.40
2018-01-03T20:13:45.942Z,5.40
2018-01-03T20:16:14.134Z,5.50
2018-01-03T20:18:43.098Z,5.50
2018-01-03T20:21:11.260Z,5.50
2018-01-03T20:23:39.423Z,5.50
2018-01-03T20:26:07.557Z,5.60
2018-01-03T20:28:36.493Z,5.60
2018-01-03T20:31:04.655Z,5.60
2018-01-03T20:33:32.795Z,5.60
2018-01-03T20:36:01.706Z,5.60
2018-01-03T20:38:29.878Z,5.60
2018-01-03T20:40:58.014Z,5.60
2018-01-03T20:43:26.172Z,5.70
2018-01-03T20:45:54.357Z,5.70
2018-01-03T20:48:22.523Z,5.70
2018-01-03T20:50:50.662Z,5.70
2018-01-03T20:53:18.830Z,5.70
2018-01-03T20:55:46.974Z,5.70
2018-01-03T20:58:15.960Z,5.70
2018-01-03T21:00:44.910Z,5.70
2018-01-03T21:03:13.104Z,5.70
2018-01-03T21:05:41.251Z,5.70
2018-01-03T21:08:09.427Z,5.70
2018-01-03T21:10:37.560Z,5.80
2018-01-03T21:13:06.561Z,5.70
2018-01-03T21:15:34.710Z,5.70
2018-01-03T21:18:03.628Z,5.70
2018-01-03T21:20:31.790Z,5.70
2018-01-03T21:22:59.941Z,5.70
2018-01-03T21:25:28.085Z,5.70
2018-01-03T21:27:56.238Z,5.70
2018-01-03T21:30:24.381Z,5.60
2018-01-03T21:32:53.307Z,5.60
2018-01-03T21:35:21.599Z,5.60
2018-01-03T21:37:49.944Z,5.60
2018-01-03T21:40:18.300Z,5.50
2018-01-03T21:42:46.657Z,5.50
2018-01-03T21:45:14.811Z,5.50
2018-01-03T21:47:43.192Z,5.50
2018-01-03T21:50:11.753Z,5.50
2018-01-03T21:52:40.242Z,5.50
2018-01-03T21:55:08.650Z,5.50
2018-01-03T21:57:37.237Z,5.40
2018-01-03T22:00:05.793Z,5.40
2018-01-03T22:02:34.016Z,5.40
2018-01-03T22:05:02.600Z,5.40
2018-01-03T22:07:30.765Z,5.30
2018-01-03T22:09:59.013Z,5.30
2018-01-03T22:12:27.182Z,5.20
2018-01-03T22:14:55.307Z,5.20
2018-01-03T22:17:23.533Z,5.20
2018-01-03T22:19:51.710Z,5.10
2018-01-03T22:22:19.858Z,5.10
2018-01-03T22:24:48.777Z,5.00
2018-01-03T22:27:17.052Z,5.00
2018-01-03T22:29:45.234Z,4.90
2018-01-03T22:32:13.369Z,4.80
2018-01-03T22:34:41.545Z,4.80
2018-01-03T22:37:09.899Z,4.70
2018-01-03T22:39:38.229Z,4.60
2018-01-03T22:42:06.380Z,4.60
2018-01-03T22:44:34.524Z,4.50
2018-01-03T22:47:02.754Z,4.40
2018-01-03T22:49:30.972Z,4.40
2018-01-03T22:51:59.165Z,4.30
2018-01-03T22:54:27.317Z,4.30
2018-01-03T22:56:56.216Z,4.30
2018-01-03T22:59:24.389Z,4.20
2018-01-03T23:01:52.532Z,4.20
2018-01-03T23:04:20.695Z,4.30
2018-01-03T23:06:48.835Z,4.20
2018-01-03T23:09:17.006Z,4.20
2018-01-03T23:11:45.125Z,4.20
2018-01-03T23:14:13.296Z,4.20
2018-01-03T23:16:41.424Z,4.20
2018-01-03T23:19:09.582Z,4.20
2018-01-03T23:21:37.726Z,4.20
2018-01-03T23:24:05.886Z,4.20
2018-01-03T23:26:34.010Z,4.20
2018-01-03T23:29:02.159Z,4.20
2018-01-03T23:31:31.050Z,4.20
2018-01-03T23:33:59.206Z,4.20
2018-01-03T23:36:27.336Z,4.20
2018-01-03T23:38:55.484Z,4.20
2018-01-03T23:41:23.616Z,4.20
2018-01-03T23:43:51.794Z,4.20
2018-01-03T23:46:19.924Z,4.20
2018-01-03T23:48:48.087Z,4.20
2018-01-03T23:51:16.215Z,4.20
2018-01-03T23:53:44.378Z,4.20
2018-01-03T23:56:12.510Z,4.20
2018-01-03T23:58:40.661Z,4.20
